Time;durP1;ratioP1;P1;durP2;ratioP2;P2;SDS_P1;SDS_P2;PMS_P1;PMS_P2;Temp;Humidity;BMP_temperature;BMP_pressure;BME280_temperature;BME280_humidity;BME280_pressure;Samples;Min_cycle;Max_cycle;Signal;HPM_P1;HPM_P2
2020/12/26 00:01:32;;;;;;;7.43;3.60;;;4.20;99.90;;;;;;5155067;27;20034;-62
2020/12/26 00:03:58;;;;;;;8.38;3.67;;;4.10;99.90;;;;;;5141979;27;20031;-60
2020/12/26 00:06:24;;;;;;;20.20;4.03;;;4.10;99.90;;;;;;5165451;27;20007;-60
2020/12/26 00:08:50;;;;;;;8.65;3.30;;;4.10;99.90;;;;;;5172927;27;20041;-60
2020/12/26 00:11:17;;;;;;;8.75;3.25;;;4.20;99.90;;;;;;5170573;27;20023;-60
2020/12/26 00:13:45;;;;;;;7.50;2.92;;;4.20;99.90;;;;;;5169809;27;20038;-61
2020/12/26 00:16:14;;;;;;;11.13;3.47;;;4.20;99.90;;;;;;5165838;27;20011;-60
2020/12/26 00:18:41;;;;;;;7.72;3.38;;;4.20;99.90;;;;;;5163279;27;20019;-61
2020/12/26 00:21:15;;;;;;;7.85;3.00;;;4.20;99.90;;;;;;5155961;27;20026;-60
2020/12/26 00:23:41;;;;;;;4.95;2.83;;;4.10;99.90;;;;;;5150974;27;20075;-60
2020/12/26 00:26:07;;;;;;;7.70;2.78;;;4.10;99.90;;;;;;5154352;27;20018;-62
2020/12/26 00:28:33;;;;;;;5.72;3.20;;;4.10;99.90;;;;;;5152386;27;20102;-60
2020/12/26 00:30:59;;;;;;;7.40;2.92;;;4.10;99.90;;;;;;5156024;27;20072;-60
2020/12/26 00:33:25;;;;;;;12.18;2.92;;;4.10;99.90;;;;;;5149642;27;20055;-61
2020/12/26 00:35:50;;;;;;;7.43;2.70;;;4.00;99.90;;;;;;5167920;27;20034;-61
2020/12/26 00:38:16;;;;;;;9.68;2.33;;;4.10;99.90;;;;;;5175950;27;20033;-59
2020/12/26 00:40:42;;;;;;;5.03;1.70;;;4.00;99.90;;;;;;5169124;27;20146;-60
2020/12/26 00:43:08;;;;;;;9.70;1.85;;;4.10;99.90;;;;;;5167540;27;20019;-60
2020/12/26 00:45:33;;;;;;;3.40;1.73;;;4.20;99.90;;;;;;5156121;27;20033;-61
2020/12/26 00:47:59;;;;;;;9.90;1.33;;;4.30;99.90;;;;;;5166015;27;20024;-60
2020/12/26 00:50:25;;;;;;;4.88;1.90;;;4.40;99.90;;;;;;5163732;27;20110;-60
2020/12/26 00:52:50;;;;;;;5.63;2.35;;;4.50;99.90;;;;;;5164745;27;20033;-58
2020/12/26 00:55:16;;;;;;;7.43;2.03;;;4.60;99.90;;;;;;5167020;27;20014;-60
2020/12/26 00:57:42;;;;;;;10.73;2.97;;;4.60;99.90;;;;;;5164604;27;20022;-60
2020/12/26 01:00:09;;;;;;;6.85;3.72;;;4.60;99.90;;;;;;5168093;27;20054;-64
2020/12/26 01:02:34;;;;;;;7.00;3.08;;;4.70;99.90;;;;;;5164117;27;20102;-59
2020/12/26 01:05:00;;;;;;;6.85;2.55;;;4.80;99.90;;;;;;5171183;27;20097;-59
2020/12/26 01:07:26;;;;;;;3.85;2.10;;;4.90;99.90;;;;;;5166151;27;20500;-59
2020/12/26 01:09:51;;;;;;;6.55;2.25;;;4.90;99.90;;;;;;5147406;27;20056;-60
2020/12/26 01:12:17;;;;;;;10.90;2.35;;;4.90;99.90;;;;;;5164501;27;20046;-59
2020/12/26 01:14:43;;;;;;;6.55;1.98;;;4.80;99.90;;;;;;5167618;27;20483;-59
2020/12/26 01:17:10;;;;;;;8.32;2.10;;;4.80;99.90;;;;;;5163884;27;20086;-60
2020/12/26 01:19:36;;;;;;;3.58;2.03;;;4.70;99.90;;;;;;5163683;27;20054;-60
2020/12/26 01:22:02;;;;;;;4.45;1.73;;;4.70;99.90;;;;;;5163349;27;20054;-59
2020/12/26 01:24:27;;;;;;;2.30;1.40;;;4.60;99.90;;;;;;5159254;27;20018;-59
2020/12/26 01:26:52;;;;;;;2.70;1.17;;;4.60;99.90;;;;;;5147051;27;20074;-59
2020/12/26 01:29:18;;;;;;;3.00;1.27;;;4.70;99.90;;;;;;5166008;27;20376;-60
2020/12/26 01:31:51;;;;;;;3.92;1.27;;;4.70;99.90;;;;;;5157989;27;20037;-59
2020/12/26 01:34:18;;;;;;;3.17;0.90;;;4.70;99.90;;;;;;5157977;27;20395;-60
2020/12/26 01:36:48;;;;;;;5.03;0.90;;;4.60;99.90;;;;;;5153699;27;20026;-61
2020/12/26 01:39:13;;;;;;;3.63;0.95;;;4.70;99.90;;;;;;5151114;27;20054;-58
2020/12/26 01:41:39;;;;;;;2.20;0.95;;;4.70;99.90;;;;;;5155026;27;20474;-59
2020/12/26 01:44:04;;;;;;;12.02;1.15;;;4.60;99.90;;;;;;5165378;27;20034;-59
2020/12/26 01:46:32;;;;;;;5.95;0.90;;;4.50;99.90;;;;;;5164905;27;20034;-59
2020/12/26 01:49:00;;;;;;;3.40;0.70;;;4.50;99.90;;;;;;5158612;27;20022;-58
2020/12/26 01:51:35;;;;;;;4.57;0.73;;;4.50;99.90;;;;;;5153552;27;20062;-59
2020/12/26 01:54:01;;;;;;;1.17;0.43;;;4.40;99.90;;;;;;5147602;27;20030;-59
2020/12/26 01:56:28;;;;;;;8.30;0.88;;;4.50;99.90;;;;;;5163981;27;20018;-59
2020/12/26 01:58:54;;;;;;;8.55;1.00;;;4.40;99.90;;;;;;5163247;27;20026;-59
2020/12/26 02:01:52;;;;;;;3.67;0.85;;;4.30;99.90;;;;;;5149817;27;20096;-59
2020/12/26 02:04:18;;;;;;;6.05;0.82;;;4.30;99.90;;;;;;5130708;27;20069;-59
2020/12/26 02:06:53;;;;;;;3.45;0.73;;;4.30;99.90;;;;;;5159267;27;20049;-58
2020/12/26 02:09:20;;;;;;;1.88;0.80;;;4.30;99.90;;;;;;5172438;27;20038;-59
2020/12/26 02:11:45;;;;;;;4.13;0.88;;;4.30;99.90;;;;;;5176508;27;20021;-58
2020/12/26 02:14:11;;;;;;;6.95;1.10;;;4.30;99.90;;;;;;5162412;27;20053;-58
2020/12/26 02:16:47;;;;;;;7.22;0.80;;;4.30;99.90;;;;;;5160939;27;20043;-59
2020/12/26 02:19:14;;;;;;;3.45;0.90;;;4.30;99.90;;;;;;5166553;27;20026;-59
2020/12/26 02:21:40;;;;;;;6.22;1.10;;;4.30;99.90;;;;;;5163582;27;20501;-61
2020/12/26 02:24:07;;;;;;;11.18;1.40;;;4.30;99.90;;;;;;5155537;27;20586;-59
2020/12/26 02:26:32;;;;;;;4.07;1.00;;;4.30;99.90;;;;;;5163042;27;20027;-59
2020/12/26 02:28:58;;;;;;;8.20;1.02;;;4.30;99.90;;;;;;5160736;27;20059;-59
2020/12/26 02:31:23;;;;;;;4.88;1.45;;;4.30;99.90;;;;;;5153521;27;20537;-59
2020/12/26 02:33:49;;;;;;;6.97;1.00;;;4.30;99.90;;;;;;5153374;27;20034;-59
2020/12/26 02:36:15;;;;;;;7.22;1.80;;;4.20;99.90;;;;;;5152998;27;20528;-59
2020/12/26 02:38:41;;;;;;;11.98;1.58;;;4.10;99.90;;;;;;5154556;27;20502;-58
2020/12/26 02:41:07;;;;;;;9.00;1.17;;;4.10;99.90;;;;;;5153683;27;20018;-59
2020/12/26 02:43:33;;;;;;;2.22;0.95;;;4.20;99.90;;;;;;5150426;27;20555;-59
2020/12/26 02:45:58;;;;;;;15.77;1.10;;;4.20;99.90;;;;;;5153475;27;20021;-59
2020/12/26 02:48:24;;;;;;;6.55;0.75;;;4.20;99.90;;;;;;5144235;27;20473;-59
2020/12/26 02:50:50;;;;;;;4.13;0.82;;;4.20;99.90;;;;;;5155499;27;20027;-59
2020/12/26 02:53:16;;;;;;;8.32;1.27;;;4.20;99.90;;;;;;5157239;27;20038;-59
2020/12/26 02:55:41;;;;;;;8.38;1.10;;;4.20;99.90;;;;;;5170005;27;20030;-60
2020/12/26 02:58:07;;;;;;;7.22;1.33;;;4.10;99.90;;;;;;5158608;27;20054;-60
2020/12/26 03:00:33;;;;;;;3.70;1.00;;;4.20;99.90;;;;;;5158047;27;20041;-59
2020/12/26 03:02:59;;;;;;;2.70;0.65;;;4.20;99.90;;;;;;5154304;27;20380;-58
2020/12/26 03:05:25;;;;;;;11.63;1.40;;;4.10;99.90;;;;;;5154799;27;20023;-59
2020/12/26 03:07:51;;;;;;;7.30;0.90;;;4.10;99.90;;;;;;5144492;27;20019;-59
2020/12/26 03:10:17;;;;;;;2.95;0.68;;;4.10;99.90;;;;;;5154473;27;20440;-59
2020/12/26 03:12:42;;;;;;;2.78;0.57;;;4.10;99.90;;;;;;5157452;27;20113;-59
2020/12/26 03:15:08;;;;;;;2.30;0.75;;;4.10;99.90;;;;;;5169006;27;20523;-59
2020/12/26 03:17:34;;;;;;;7.13;1.00;;;4.10;99.90;;;;;;5149387;27;20030;-59
2020/12/26 03:20:00;;;;;;;3.92;1.00;;;4.10;99.90;;;;;;5147375;27;20023;-59
2020/12/26 03:22:28;;;;;;;8.88;0.98;;;4.20;99.90;;;;;;5147334;27;20027;-58
2020/12/26 03:24:55;;;;;;;9.55;1.15;;;4.20;99.90;;;;;;5148753;27;20031;-59
2020/12/26 03:27:21;;;;;;;5.75;1.10;;;4.10;99.90;;;;;;5151850;27;20364;-59
2020/12/26 03:29:47;;;;;;;5.25;0.95;;;4.10;99.90;;;;;;5159693;27;20038;-61
2020/12/26 03:32:13;;;;;;;3.13;0.98;;;4.10;99.90;;;;;;5151981;27;20031;-60
2020/12/26 03:34:38;;;;;;;3.90;0.75;;;4.10;99.90;;;;;;5154168;27;20101;-60
2020/12/26 03:37:04;;;;;;;4.40;0.75;;;4.10;99.90;;;;;;5159462;27;20105;-59
2020/12/26 03:39:34;;;;;;;4.78;0.65;;;4.20;99.90;;;;;;5151646;27;20046;-59
2020/12/26 03:42:00;;;;;;;1.55;0.80;;;4.20;99.90;;;;;;5151084;27;20027;-60
2020/12/26 03:44:25;;;;;;;4.72;1.02;;;4.20;99.90;;;;;;5153059;27;20041;-59
2020/12/26 03:46:51;;;;;;;5.20;1.05;;;4.20;99.90;;;;;;5148676;27;20026;-59
2020/12/26 03:49:16;;;;;;;8.77;0.90;;;4.10;99.90;;;;;;5154023;27;20027;-59
2020/12/26 03:51:42;;;;;;;6.07;0.98;;;4.10;99.90;;;;;;5149132;27;20306;-59
2020/12/26 03:54:07;;;;;;;4.53;0.60;;;4.10;99.90;;;;;;5155695;27;20058;-62
2020/12/26 03:56:33;;;;;;;8.35;1.00;;;4.00;99.90;;;;;;5157666;27;20083;-60
2020/12/26 03:58:58;;;;;;;4.07;1.08;;;4.00;99.90;;;;;;5150333;27;20030;-59
2020/12/26 04:01:24;;;;;;;2.10;0.80;;;4.00;99.90;;;;;;5148931;27;20083;-60
2020/12/26 04:03:50;;;;;;;7.95;1.23;;;4.10;99.90;;;;;;5146029;27;20034;-60
2020/12/26 04:06:15;;;;;;;5.53;1.25;;;4.00;99.90;;;;;;5152474;27;20043;-60
2020/12/26 04:08:41;;;;;;;4.45;0.88;;;4.10;99.90;;;;;;5157519;27;20487;-59
2020/12/26 04:11:06;;;;;;;11.80;1.38;;;4.20;99.90;;;;;;5160778;27;20033;-59
2020/12/26 04:13:32;;;;;;;6.72;1.23;;;4.20;99.90;;;;;;5156898;27;20050;-59
2020/12/26 04:15:57;;;;;;;4.03;1.00;;;4.20;99.90;;;;;;5155213;27;20041;-59
2020/12/26 04:18:23;;;;;;;3.70;1.00;;;4.10;99.90;;;;;;5159855;27;20023;-61
2020/12/26 04:20:49;;;;;;;4.63;1.02;;;4.20;99.90;;;;;;5151853;27;20023;-59
2020/12/26 04:23:15;;;;;;;3.60;0.80;;;4.20;99.90;;;;;;5141780;27;20102;-60
2020/12/26 04:25:40;;;;;;;4.45;1.00;;;4.20;99.90;;;;;;5152752;27;20130;-60
2020/12/26 04:28:06;;;;;;;5.82;0.88;;;4.20;99.90;;;;;;5150738;27;20099;-60
2020/12/26 04:30:31;;;;;;;4.75;0.90;;;4.10;99.90;;;;;;5152315;27;20109;-60
2020/12/26 04:32:57;;;;;;;8.05;1.13;;;4.10;99.90;;;;;;5152917;27;20540;-60
2020/12/26 04:35:22;;;;;;;6.80;2.45;;;4.00;99.90;;;;;;5171624;27;20026;-60
2020/12/26 04:37:49;;;;;;;4.55;0.82;;;3.90;99.90;;;;;;5156108;27;20027;-60
2020/12/26 04:40:15;;;;;;;7.97;1.10;;;3.90;99.90;;;;;;5152001;27;20502;-59
2020/12/26 04:42:42;;;;;;;9.73;1.13;;;3.90;99.90;;;;;;5151649;27;20031;-59
2020/12/26 04:45:08;;;;;;;4.78;0.68;;;3.90;99.90;;;;;;5162811;27;20038;-59
2020/12/26 04:47:44;;;;;;;1.50;0.80;;;3.90;99.90;;;;;;5151622;27;20396;-58
2020/12/26 04:50:10;;;;;;;4.25;1.20;;;3.90;99.90;;;;;;5150143;27;20035;-59
2020/12/26 04:52:36;;;;;;;8.40;1.00;;;4.00;99.90;;;;;;5147529;27;20049;-59
2020/12/26 04:55:05;;;;;;;2.13;0.70;;;4.00;99.90;;;;;;5151544;27;20054;-58
2020/12/26 04:57:37;;;;;;;2.08;0.68;;;4.00;99.90;;;;;;5137645;27;20041;-59
2020/12/26 05:00:06;;;;;;;5.47;1.00;;;4.00;99.90;;;;;;5150765;27;20023;-59
2020/12/26 05:02:40;;;;;;;5.15;1.00;;;4.10;99.90;;;;;;5133227;27;20066;-59
2020/12/26 05:05:05;;;;;;;2.55;0.93;;;4.10;99.90;;;;;;5151566;27;20647;-58
2020/12/26 05:07:32;;;;;;;17.55;1.90;;;4.00;99.90;;;;;;5144784;27;20031;-58
2020/12/26 05:09:58;;;;;;;2.20;0.80;;;3.90;99.90;;;;;;5179588;27;20033;-57
2020/12/26 05:12:24;;;;;;;3.95;0.80;;;3.90;99.90;;;;;;5174610;27;20023;-58
2020/12/26 05:14:52;;;;;;;3.78;0.85;;;3.90;99.90;;;;;;5178809;27;20034;-58
2020/12/26 05:17:20;;;;;;;7.82;1.08;;;3.90;99.90;;;;;;5192208;27;20018;-60
2020/12/26 05:19:46;;;;;;;6.88;0.95;;;4.00;99.90;;;;;;5158756;27;20038;-60
2020/12/26 05:22:12;;;;;;;3.50;1.42;;;3.90;99.90;;;;;;5144172;27;20027;-59
2020/12/26 05:24:37;;;;;;;6.07;1.38;;;3.90;99.90;;;;;;5149690;27;20022;-59
2020/12/26 05:27:03;;;;;;;7.70;1.20;;;3.90;99.90;;;;;;5167513;27;20003;-59
2020/12/26 05:29:31;;;;;;;15.32;1.42;;;3.80;99.90;;;;;;5171038;27;20029;-58
2020/12/26 05:31:58;;;;;;;7.68;1.27;;;3.80;99.90;;;;;;5144415;27;20071;-58
2020/12/26 05:34:35;;;;;;;8.60;1.30;;;3.80;99.90;;;;;;5145088;27;20030;-60
2020/12/26 05:37:02;;;;;;;7.45;1.10;;;3.90;99.90;;;;;;5150088;27;20057;-60
2020/12/26 05:39:29;;;;;;;4.28;1.23;;;3.90;99.90;;;;;;5150315;27;20038;-61
2020/12/26 05:41:55;;;;;;;7.07;1.80;;;3.80;99.90;;;;;;5149633;27;20443;-60
2020/12/26 05:44:24;;;;;;;4.40;1.63;;;3.90;99.90;;;;;;5150969;27;20039;-60
2020/12/26 05:47:01;;;;;;;5.90;1.30;;;3.90;99.90;;;;;;5163208;27;20025;-61
2020/12/26 05:49:33;;;;;;;7.68;1.75;;;3.90;99.90;;;;;;5151216;27;20019;-59
2020/12/26 05:52:11;;;;;;;6.75;1.75;;;3.90;99.90;;;;;;5148994;27;20607;-60
2020/12/26 05:54:37;;;;;;;5.38;1.73;;;3.90;99.90;;;;;;5149547;27;20180;-60
2020/12/26 05:57:14;;;;;;;4.50;1.95;;;3.90;99.90;;;;;;5150091;27;20033;-60
2020/12/26 05:59:45;;;;;;;5.93;1.63;;;3.90;99.90;;;;;;5147468;27;20035;-60
2020/12/26 06:02:21;;;;;;;8.85;2.33;;;3.90;99.90;;;;;;5143238;27;20074;-60
2020/12/26 06:05:03;;;;;;;11.50;3.15;;;3.90;99.90;;;;;;5145906;27;20518;-60
2020/12/26 06:07:38;;;;;;;11.70;2.35;;;4.00;99.90;;;;;;5150396;27;20499;-60
2020/12/26 06:10:08;;;;;;;9.32;2.50;;;4.00;99.90;;;;;;5149447;27;20155;-60
2020/12/26 06:12:35;;;;;;;12.95;2.75;;;4.00;99.90;;;;;;5150400;27;20031;-60
2020/12/26 06:15:00;;;;;;;6.57;2.88;;;4.00;99.90;;;;;;5149564;27;20026;-60
2020/12/26 06:17:30;;;;;;;11.80;2.90;;;4.00;99.90;;;;;;5150820;27;20368;-61
2020/12/26 06:19:58;;;;;;;16.73;3.00;;;4.00;99.90;;;;;;5149594;27;20546;-61
2020/12/26 06:22:24;;;;;;;11.30;3.50;;;3.90;99.90;;;;;;5143601;27;20275;-61
2020/12/26 06:24:50;;;;;;;6.70;3.10;;;3.90;99.90;;;;;;5149871;27;20113;-60
2020/12/26 06:27:16;;;;;;;11.38;3.20;;;4.00;99.90;;;;;;5159495;27;20093;-61
2020/12/26 06:29:44;;;;;;;10.75;2.90;;;4.00;99.90;;;;;;5148407;27;20034;-61
2020/12/26 06:32:12;;;;;;;9.50;3.58;;;4.00;99.90;;;;;;5148308;27;20405;-61
2020/12/26 06:34:40;;;;;;;7.93;3.55;;;4.00;99.90;;;;;;5143254;27;20051;-61
2020/12/26 06:37:06;;;;;;;13.32;2.95;;;4.00;99.90;;;;;;5165774;27;20047;-61
2020/12/26 06:39:33;;;;;;;8.43;3.58;;;4.00;99.90;;;;;;5162018;27;20015;-60
2020/12/26 06:42:12;;;;;;;10.68;3.15;;;4.10;99.90;;;;;;5161613;27;20027;-60
2020/12/26 06:44:38;;;;;;;13.05;2.80;;;4.10;99.90;;;;;;5155940;27;20169;-60
2020/12/26 06:47:03;;;;;;;9.68;4.13;;;4.20;99.90;;;;;;5162428;27;20023;-61
2020/12/26 06:49:29;;;;;;;9.75;3.90;;;4.10;99.90;;;;;;5162922;27;20422;-61
2020/12/26 06:51:55;;;;;;;8.18;3.97;;;4.10;99.90;;;;;;5168167;27;20399;-60
2020/12/26 06:54:42;;;;;;;8.57;4.03;;;4.10;99.90;;;;;;5158031;27;20114;-60
2020/12/26 06:57:08;;;;;;;10.02;3.95;;;4.10;99.90;;;;;;5162949;27;20480;-59
2020/12/26 06:59:35;;;;;;;8.73;4.68;;;4.10;99.90;;;;;;5155483;27;20042;-60
2020/12/26 07:02:08;;;;;;;12.27;3.88;;;4.10;99.90;;;;;;5164752;27;20018;-60
2020/12/26 07:04:39;;;;;;;9.48;4.03;;;4.20;99.90;;;;;;5162823;27;20083;-60
2020/12/26 07:07:04;;;;;;;5.88;3.90;;;4.20;99.90;;;;;;5164298;27;20315;-60
2020/12/26 07:09:36;;;;;;;10.68;3.88;;;4.10;99.90;;;;;;5160718;27;20166;-60
2020/12/26 07:12:06;;;;;;;8.53;3.77;;;4.10;99.90;;;;;;5161172;27;20037;-60
2020/12/26 07:14:36;;;;;;;13.52;4.43;;;4.10;99.90;;;;;;5165252;27;20055;-60
2020/12/26 07:17:14;;;;;;;15.98;4.85;;;4.10;99.90;;;;;;5158084;27;20109;-59
2020/12/26 07:19:53;;;;;;;13.23;4.78;;;4.10;99.90;;;;;;5162044;27;20030;-59
2020/12/26 07:22:31;;;;;;;12.48;4.68;;;4.10;99.90;;;;;;5161501;27;20073;-61
2020/12/26 07:25:01;;;;;;;8.80;4.75;;;4.20;99.90;;;;;;5171499;27;20035;-60
2020/12/26 07:27:27;;;;;;;12.55;4.25;;;4.20;99.90;;;;;;5173380;27;20106;-60
2020/12/26 07:29:57;;;;;;;12.23;4.57;;;4.10;99.90;;;;;;5157448;27;20791;-60
2020/12/26 07:32:42;;;;;;;7.35;4.57;;;4.10;99.90;;;;;;5151681;27;20387;-59
2020/12/26 07:35:11;;;;;;;10.23;5.07;;;4.10;99.90;;;;;;5152481;27;20019;-60
2020/12/26 07:37:37;;;;;;;9.57;4.72;;;4.10;99.90;;;;;;5152836;27;20102;-61
2020/12/26 07:40:02;;;;;;;9.00;4.53;;;4.10;99.90;;;;;;5158063;27;20110;-61
2020/12/26 07:42:29;;;;;;;9.48;4.18;;;4.10;99.90;;;;;;5148805;27;20030;-59
2020/12/26 07:44:54;;;;;;;10.57;4.03;;;4.10;99.90;;;;;;5168116;27;20406;-60
2020/12/26 07:47:20;;;;;;;9.57;4.40;;;4.00;99.90;;;;;;5174881;27;20109;-60
2020/12/26 07:49:58;;;;;;;13.13;5.05;;;4.00;99.90;;;;;;5161728;27;20030;-60
2020/12/26 07:52:24;;;;;;;11.73;4.85;;;4.00;99.90;;;;;;5146674;27;20732;-61
2020/12/26 07:55:00;;;;;;;11.40;4.55;;;3.90;99.90;;;;;;5153662;27;20062;-60
2020/12/26 07:57:27;;;;;;;10.23;5.10;;;3.90;99.90;;;;;;5134486;27;20023;-60
2020/12/26 07:59:53;;;;;;;9.55;5.28;;;3.90;99.90;;;;;;5157173;27;20049;-60
2020/12/26 08:02:18;;;;;;;6.65;5.30;;;3.90;99.90;;;;;;5152441;27;20442;-60
2020/12/26 08:04:45;;;;;;;8.88;5.28;;;3.80;99.90;;;;;;5149063;27;20022;-60
2020/12/26 08:07:13;;;;;;;12.85;5.45;;;3.90;99.90;;;;;;5153381;27;20070;-60
2020/12/26 08:09:38;;;;;;;12.43;4.85;;;3.80;99.90;;;;;;5142066;27;20547;-60
2020/12/26 08:12:07;;;;;;;11.63;4.93;;;3.90;99.90;;;;;;5164768;27;20031;-62
2020/12/26 08:14:33;;;;;;;10.65;4.85;;;4.00;99.90;;;;;;5152238;27;20030;-61
2020/12/26 08:16:59;;;;;;;12.57;3.50;;;4.00;99.90;;;;;;5166815;27;20027;-60
2020/12/26 08:19:26;;;;;;;8.45;3.47;;;4.10;99.90;;;;;;5152279;27;20054;-60
2020/12/26 08:21:58;;;;;;;8.65;3.53;;;4.20;99.90;;;;;;5149089;27;20665;-60
2020/12/26 08:24:24;;;;;;;;;;;4.20;99.90;;;;;;5133726;27;20019;-59
2020/12/26 08:26:53;;;;;;;7.25;3.53;;;4.30;99.90;;;;;;5151621;27;19959;-61
2020/12/26 08:29:32;;;;;;;15.52;4.72;;;4.30;99.90;;;;;;5155879;27;20015;-60
2020/12/26 08:32:11;;;;;;;13.57;3.45;;;4.30;99.90;;;;;;5145956;27;20028;-61
2020/12/26 08:34:52;;;;;;;6.60;2.80;;;4.30;99.90;;;;;;5156507;27;20752;-59
2020/12/26 08:37:24;;;;;;;4.88;2.60;;;4.40;99.90;;;;;;5170248;27;20427;-60
2020/12/26 08:40:16;;;;;;;7.88;2.90;;;4.40;99.90;;;;;;5181173;27;20052;-61
2020/12/26 08:42:43;;;;;;;8.05;3.13;;;4.40;99.90;;;;;;5170739;27;20022;-61
2020/12/26 08:45:28;;;;;;;5.72;2.63;;;4.40;99.90;;;;;;5170704;27;20062;-61
2020/12/26 08:47:55;;;;;;;8.48;2.65;;;4.40;99.90;;;;;;5175291;27;20020;-61
2020/12/26 08:50:21;;;;;;;8.70;2.40;;;4.40;99.90;;;;;;5166778;27;20031;-60
2020/12/26 08:53:00;;;;;;;6.55;2.15;;;4.40;99.90;;;;;;5163571;27;20022;-61
2020/12/26 08:55:26;;;;;;;5.93;2.20;;;4.40;99.90;;;;;;5165984;27;20034;-61
2020/12/26 08:57:58;;;;;;;6.63;2.20;;;4.50;99.90;;;;;;5167621;27;20066;-60
2020/12/26 09:00:26;;;;;;;2.35;2.15;;;4.50;99.90;;;;;;5164790;27;20022;-60
2020/12/26 09:02:53;;;;;;;5.53;2.40;;;4.60;99.90;;;;;;5167160;27;20023;-60
2020/12/26 09:05:20;;;;;;;4.55;2.65;;;4.60;99.90;;;;;;5168230;27;20101;-60
2020/12/26 09:07:45;;;;;;;13.75;3.20;;;4.70;99.90;;;;;;5169569;27;20026;-60
2020/12/26 09:10:12;;;;;;;8.00;3.05;;;4.70;99.90;;;;;;5166833;27;20018;-60
2020/12/26 09:12:37;;;;;;;10.32;3.92;;;4.60;99.90;;;;;;5148442;27;20046;-61
2020/12/26 09:15:03;;;;;;;9.02;3.50;;;4.60;99.90;;;;;;5169119;27;20054;-61
2020/12/26 09:17:29;;;;;;;6.90;3.03;;;4.60;99.90;;;;;;5168183;27;20018;-61
2020/12/26 09:19:57;;;;;;;11.93;3.47;;;4.60;99.90;;;;;;5167099;27;20041;-60
2020/12/26 09:22:27;;;;;;;6.72;2.80;;;4.70;99.90;;;;;;5159213;27;20048;-60
2020/12/26 09:24:53;;;;;;;7.28;2.90;;;4.70;99.90;;;;;;5161276;27;20132;-61
2020/12/26 09:27:22;;;;;;;7.43;3.00;;;4.60;99.90;;;;;;5164341;27;20050;-61
2020/12/26 09:29:54;;;;;;;8.68;2.45;;;4.60;99.90;;;;;;5166725;27;20034;-60
2020/12/26 09:32:20;;;;;;;7.13;2.95;;;4.60;99.90;;;;;;5147143;27;20038;-62
2020/12/26 09:34:46;;;;;;;7.15;3.05;;;4.70;99.90;;;;;;5163208;27;20078;-61
2020/12/26 09:37:11;;;;;;;8.70;3.17;;;4.60;99.90;;;;;;5158520;27;20015;-60
2020/12/26 09:39:38;;;;;;;9.40;3.65;;;4.50;99.90;;;;;;5151974;27;20034;-60
2020/12/26 09:42:04;;;;;;;8.15;3.78;;;4.50;99.90;;;;;;5152182;27;20018;-61
2020/12/26 09:44:30;;;;;;;10.27;3.63;;;4.50;99.90;;;;;;5152551;27;20117;-60
2020/12/26 09:47:00;;;;;;;9.90;3.92;;;4.50;99.90;;;;;;5152071;27;20530;-62
2020/12/26 09:49:26;;;;;;;7.25;3.40;;;4.50;99.90;;;;;;5134169;27;20179;-60
2020/12/26 09:51:52;;;;;;;10.50;3.88;;;4.50;99.90;;;;;;5153209;27;20023;-60
2020/12/26 09:54:17;;;;;;;8.80;3.85;;;4.60;99.90;;;;;;5153263;27;20496;-59
2020/12/26 09:56:43;;;;;;;13.07;4.28;;;4.60;99.90;;;;;;5156735;27;20023;-61
2020/12/26 09:59:09;;;;;;;8.60;3.60;;;4.70;99.90;;;;;;5159881;27;20040;-61
2020/12/26 10:01:34;;;;;;;9.40;4.15;;;4.70;99.90;;;;;;5157594;27;20079;-63
2020/12/26 10:04:00;;;;;;;11.38;3.80;;;4.70;99.90;;;;;;5156572;27;20220;-61
2020/12/26 10:06:26;;;;;;;8.55;3.38;;;4.70;99.90;;;;;;5164170;27;20022;-61
2020/12/26 10:08:51;;;;;;;10.35;4.03;;;4.70;99.90;;;;;;5143986;27;20030;-61
2020/12/26 10:11:18;;;;;;;9.85;3.80;;;4.70;99.90;;;;;;5132951;27;20368;-61
2020/12/26 10:13:45;;;;;;;16.65;3.90;;;4.80;99.90;;;;;;5151058;27;20019;-61
2020/12/26 10:16:11;;;;;;;8.65;3.63;;;4.80;99.90;;;;;;5150264;27;20027;-61
2020/12/26 10:18:36;;;;;;;10.23;3.90;;;4.80;99.90;;;;;;5158527;27;20530;-60
2020/12/26 10:21:03;;;;;;;11.93;3.05;;;4.90;99.90;;;;;;5158894;27;20033;-61
2020/12/26 10:23:28;;;;;;;9.93;4.20;;;4.90;99.90;;;;;;5164232;27;20025;-62
2020/12/26 10:25:54;;;;;;;12.32;3.75;;;4.90;99.90;;;;;;5154552;27;20019;-61
2020/12/26 10:28:20;;;;;;;9.20;3.67;;;4.90;99.90;;;;;;5157905;27;20022;-60
2020/12/26 10:30:50;;;;;;;8.40;3.17;;;4.90;99.90;;;;;;5161768;27;20149;-60
2020/12/26 10:33:15;;;;;;;8.32;3.15;;;4.90;99.90;;;;;;5176821;27;20042;-61
2020/12/26 10:35:41;;;;;;;7.47;3.28;;;4.90;99.90;;;;;;5178356;27;20027;-62
2020/12/26 10:38:07;;;;;;;8.82;3.47;;;4.90;99.90;;;;;;5174865;27;20027;-62
2020/12/26 10:40:32;;;;;;;6.18;2.95;;;4.90;99.90;;;;;;5140358;27;20057;-59
2020/12/26 10:42:58;;;;;;;8.60;3.42;;;4.90;99.90;;;;;;5157274;27;20063;-61
2020/12/26 10:45:24;;;;;;;8.43;4.05;;;5.00;99.90;;;;;;5168948;27;20039;-62
2020/12/26 10:47:50;;;;;;;8.32;3.40;;;5.00;99.90;;;;;;5160407;27;20049;-60
2020/12/26 10:50:16;;;;;;;8.30;3.95;;;5.00;99.90;;;;;;5121918;27;20102;-61
2020/12/26 10:52:43;;;;;;;9.75;3.67;;;4.90;99.90;;;;;;5165958;27;20011;-62
2020/12/26 10:55:15;;;;;;;4.68;3.30;;;4.90;99.90;;;;;;5163853;27;20015;-61
2020/12/26 10:57:42;;;;;;;;;;;5.00;99.90;;;;;;5163676;27;20057;-62
2020/12/26 11:00:08;;;;;;;16.58;3.97;;;5.00;99.90;;;;;;5158408;27;19914;-64
2020/12/26 11:02:34;;;;;;;11.02;3.50;;;4.90;99.90;;;;;;5168551;27;20406;-61
2020/12/26 11:04:59;;;;;;;10.45;3.72;;;4.90;99.90;;;;;;5159881;27;20018;-60
2020/12/26 11:07:25;;;;;;;16.88;3.83;;;5.00;99.90;;;;;;5163822;27;20033;-61
2020/12/26 11:09:50;;;;;;;8.32;3.47;;;5.00;99.90;;;;;;5159146;27;20042;-61
2020/12/26 11:12:16;;;;;;;7.50;3.33;;;5.00;99.90;;;;;;5145516;27;20029;-61
2020/12/26 11:14:41;;;;;;;8.13;3.10;;;5.00;99.90;;;;;;5167673;27;20380;-60
2020/12/26 11:17:07;;;;;;;8.43;3.33;;;5.00;99.90;;;;;;5155072;27;20026;-60
2020/12/26 11:19:32;;;;;;;8.88;3.58;;;5.00;99.90;;;;;;5157929;27;20079;-62
2020/12/26 11:21:58;;;;;;;6.70;2.90;;;5.10;99.90;;;;;;5160601;27;20454;-61
2020/12/26 11:24:23;;;;;;;7.90;3.42;;;5.20;99.90;;;;;;5153480;27;20277;-62
2020/12/26 11:26:49;;;;;;;7.78;2.80;;;5.20;99.90;;;;;;5152391;27;20107;-61
2020/12/26 11:29:15;;;;;;;21.25;3.60;;;5.20;99.90;;;;;;5152824;27;20498;-60
2020/12/26 11:31:41;;;;;;;8.80;3.08;;;5.30;99.90;;;;;;5153565;27;20023;-61
2020/12/26 11:34:10;;;;;;;7.00;3.72;;;5.30;99.90;;;;;;5134941;27;20033;-60
2020/12/26 11:36:35;;;;;;;6.68;3.72;;;5.30;99.90;;;;;;5153679;27;20422;-62
2020/12/26 11:39:01;;;;;;;7.97;3.50;;;5.40;99.90;;;;;;5163761;27;20032;-60
2020/12/26 11:41:28;;;;;;;6.25;3.22;;;5.40;99.90;;;;;;5163718;27;20030;-59
2020/12/26 11:43:55;;;;;;;9.73;4.15;;;5.50;99.90;;;;;;5161025;27;20035;-61
2020/12/26 11:46:21;;;;;;;7.50;3.28;;;5.50;99.90;;;;;;5167113;27;20265;-62
2020/12/26 11:48:46;;;;;;;10.65;3.88;;;5.50;99.90;;;;;;5161830;27;20054;-61
2020/12/26 11:51:12;;;;;;;7.72;3.22;;;5.50;99.90;;;;;;5174935;27;20477;-60
2020/12/26 11:53:39;;;;;;;8.10;3.63;;;5.60;99.90;;;;;;5165777;27;20046;-59
2020/12/26 11:56:12;;;;;;;7.57;4.20;;;5.50;99.90;;;;;;5164825;27;20476;-60
2020/12/26 11:58:39;;;;;;;12.27;3.92;;;5.40;99.90;;;;;;5157295;27;20376;-62
2020/12/26 12:01:06;;;;;;;10.98;4.07;;;5.40;99.90;;;;;;5152365;27;20029;-60
2020/12/26 12:03:33;;;;;;;9.90;4.13;;;5.40;99.90;;;;;;5167190;27;20025;-60
2020/12/26 12:05:58;;;;;;;7.45;3.03;;;5.40;99.90;;;;;;5168756;27;20090;-59
2020/12/26 12:08:24;;;;;;;7.47;3.40;;;5.50;99.90;;;;;;5163038;27;20033;-62
2020/12/26 12:10:50;;;;;;;10.48;4.10;;;5.60;99.90;;;;;;5157890;27;20030;-60
2020/12/26 12:13:16;;;;;;;9.55;3.90;;;5.60;99.90;;;;;;5157045;27;20082;-60
2020/12/26 12:15:42;;;;;;;6.75;3.53;;;5.60;99.90;;;;;;5156363;27;20076;-61
2020/12/26 12:18:08;;;;;;;12.02;4.97;;;5.60;99.90;;;;;;5156278;27;20031;-62
2020/12/26 12:20:34;;;;;;;8.95;3.22;;;5.60;99.90;;;;;;5155358;27;20029;-62
2020/12/26 12:23:00;;;;;;;9.23;3.53;;;5.60;99.90;;;;;;5153139;27;20041;-61
2020/12/26 12:25:27;;;;;;;10.18;3.05;;;5.60;99.90;;;;;;5131736;27;20023;-62
2020/12/26 12:27:53;;;;;;;9.10;3.08;;;5.60;99.90;;;;;;5152870;27;20026;-63
2020/12/26 12:30:19;;;;;;;10.38;3.85;;;5.70;99.90;;;;;;5118337;27;20030;-61
2020/12/26 12:32:44;;;;;;;16.17;3.65;;;5.70;99.90;;;;;;5153211;27;20027;-62
2020/12/26 12:35:11;;;;;;;10.55;4.13;;;5.70;99.90;;;;;;5152394;27;20026;-61
2020/12/26 12:37:36;;;;;;;10.05;3.17;;;5.70;99.90;;;;;;5151807;27;20079;-62
2020/12/26 12:40:06;;;;;;;7.53;3.38;;;5.70;99.90;;;;;;5168796;27;20787;-61
2020/12/26 12:42:31;;;;;;;14.07;3.95;;;5.70;99.90;;;;;;5161972;27;20033;-60
2020/12/26 12:44:57;;;;;;;9.02;3.25;;;5.70;99.90;;;;;;5153021;27;20035;-61
2020/12/26 12:47:24;;;;;;;10.32;3.83;;;5.70;99.90;;;;;;5143230;27;20026;-63
2020/12/26 12:49:50;;;;;;;7.28;3.63;;;5.70;99.90;;;;;;5136616;27;20518;-61
2020/12/26 12:52:17;;;;;;;9.90;3.95;;;5.80;99.90;;;;;;5156301;27;20023;-61
2020/12/26 12:54:43;;;;;;;8.35;3.47;;;5.80;99.90;;;;;;5152358;27;20026;-63
2020/12/26 12:57:08;;;;;;;5.82;3.15;;;5.90;99.90;;;;;;5151232;27;20054;-61